createdAt,value
2022-11-29T00:00:28.450Z,3.00
2022-11-29T00:03:31.300Z,3.00
2022-11-29T00:06:34.432Z,3.00
2022-11-29T00:09:36.469Z,3.00
2022-11-29T00:12:38.535Z,3.00
2022-11-29T00:15:40.953Z,3.00
2022-11-29T00:18:42.938Z,3.00
2022-11-29T00:21:45.079Z,3.00
2022-11-29T00:24:47.121Z,3.00
2022-11-29T00:27:49.180Z,2.90
2022-11-29T00:30:51.239Z,3.00
2022-11-29T00:33:53.640Z,2.90
2022-11-29T00:36:55.803Z,3.00
2022-11-29T00:39:58.033Z,2.90
2022-11-29T00:43:00.054Z,2.90
2022-11-29T00:46:03.087Z,2.90
2022-11-29T00:49:05.562Z,2.90
2022-11-29T00:52:07.687Z,2.90
2022-11-29T00:55:09.920Z,2.90
2022-11-29T00:58:11.974Z,2.90
2022-11-29T01:01:14.053Z,2.90
2022-11-29T01:04:16.258Z,2.90
2022-11-29T01:07:18.385Z,2.90
2022-11-29T01:10:20.498Z,3.00
2022-11-29T01:13:22.465Z,2.90
2022-11-29T01:16:25.512Z,2.90
2022-11-29T01:19:28.426Z,2.90
2022-11-29T01:22:30.465Z,2.80
2022-11-29T01:25:32.629Z,2.80
2022-11-29T01:28:36.787Z,2.80
2022-11-29T01:31:39.153Z,2.70
2022-11-29T01:34:41.397Z,2.70
2022-11-29T01:37:43.513Z,2.60
2022-11-29T01:40:55.911Z,2.60
2022-11-29T01:44:01.528Z,2.60
2022-11-29T01:47:03.900Z,2.50
2022-11-29T01:50:08.290Z,2.50
2022-11-29T01:53:12.022Z,2.50
2022-11-29T01:56:15.717Z,2.50
2022-11-29T01:59:22.052Z,2.50
2022-11-29T02:02:38.517Z,2.50
2022-11-29T02:05:44.392Z,2.50
2022-11-29T02:08:46.349Z,2.40
2022-11-29T02:12:35.498Z,2.40
2022-11-29T02:15:48.571Z,2.40
2022-11-29T02:18:54.803Z,2.40
2022-11-29T02:22:14.076Z,2.40
2022-11-29T02:25:53.473Z,2.40
2022-11-29T02:29:13.361Z,2.40
2022-11-29T02:32:50.498Z,2.40
2022-11-29T02:36:11.118Z,2.40
2022-11-29T02:39:37.739Z,2.40
2022-11-29T02:43:36.787Z,2.40
2022-11-29T02:47:03.271Z,2.40
2022-11-29T02:50:19.935Z,2.40
2022-11-29T02:53:56.023Z,2.30
2022-11-29T02:57:14.553Z,2.30
2022-11-29T03:00:20.248Z,2.20
2022-11-29T03:03:33.050Z,2.10
2022-11-29T03:06:47.199Z,2.10
2022-11-29T03:10:17.905Z,2.10
2022-11-29T03:13:34.521Z,2.00
2022-11-29T03:16:43.460Z,1.90
2022-11-29T03:20:04.733Z,1.80
2022-11-29T03:23:23.273Z,1.80
2022-11-29T03:26:35.466Z,1.80
2022-11-29T03:29:40.914Z,1.80
2022-11-29T03:33:00.759Z,1.80
2022-11-29T03:36:10.296Z,1.70
2022-11-29T03:39:21.039Z,1.70
2022-11-29T03:42:30.993Z,1.70
2022-11-29T03:45:35.800Z,1.70
2022-11-29T03:48:49.866Z,1.70
2022-11-29T03:52:04.274Z,1.70
2022-11-29T03:55:09.130Z,1.60
2022-11-29T03:58:23.094Z,1.60
2022-11-29T04:02:04.003Z,1.60
2022-11-29T04:05:34.209Z,1.60
2022-11-29T04:09:00.038Z,1.60
2022-11-29T04:12:26.179Z,1.50
2022-11-29T04:16:03.148Z,1.50
2022-11-29T04:19:17.300Z,1.50
2022-11-29T04:22:41.624Z,1.50
2022-11-29T04:26:01.994Z,1.50
2022-11-29T04:29:33.675Z,1.50
2022-11-29T04:33:14.082Z,1.60
2022-11-29T04:36:53.866Z,1.60
2022-11-29T04:40:18.219Z,1.70
2022-11-29T04:43:25.593Z,1.70
2022-11-29T04:46:54.576Z,1.80
2022-11-29T04:50:30.237Z,1.80
2022-11-29T04:53:57.219Z,1.90
2022-11-29T04:57:12.708Z,1.90
2022-11-29T05:00:21.057Z,2.00
2022-11-29T05:03:38.718Z,2.00
2022-11-29T05:06:52.606Z,2.00
2022-11-29T05:10:35.232Z,2.00
2022-11-29T05:13:40.231Z,2.00
2022-11-29T05:16:53.564Z,2.10
2022-11-29T05:20:04.881Z,2.00
2022-11-29T05:23:41.741Z,2.10
2022-11-29T05:26:59.788Z,2.10
2022-11-29T05:30:12.487Z,2.10
2022-11-29T05:33:42.041Z,2.10
2022-11-29T05:37:11.295Z,2.10
2022-11-29T05:40:25.420Z,2.10
2022-11-29T05:43:48.998Z,2.00
2022-11-29T05:47:06.230Z,2.00
2022-11-29T05:50:18.461Z,1.90
2022-11-29T05:53:44.604Z,1.90
2022-11-29T05:56:46.594Z,1.80
2022-11-29T05:59:51.246Z,1.70
2022-11-29T06:03:39.471Z,1.70
2022-11-29T06:07:19.170Z,1.60
2022-11-29T06:10:29.560Z,1.50
2022-11-29T06:13:51.090Z,1.50
2022-11-29T06:17:14.659Z,1.50
2022-11-29T06:20:53.585Z,1.40
2022-11-29T06:24:20.544Z,1.40
2022-11-29T06:28:07.882Z,1.30
2022-11-29T06:31:27.676Z,1.30
2022-11-29T06:34:56.022Z,1.30
2022-11-29T06:38:00.987Z,1.30
2022-11-29T06:41:03.277Z,1.30
2022-11-29T06:44:06.319Z,1.30
2022-11-29T06:47:16.587Z,1.30
2022-11-29T06:50:25.187Z,1.30
2022-11-29T06:53:55.498Z,1.40
2022-11-29T06:57:26.375Z,1.40
2022-11-29T07:00:47.113Z,1.50
2022-11-29T07:04:15.003Z,1.60
2022-11-29T07:07:22.595Z,1.60
2022-11-29T07:10:25.456Z,1.60
2022-11-29T07:13:27.648Z,1.70
2022-11-29T07:17:02.388Z,1.70
2022-11-29T07:20:28.474Z,1.80
2022-11-29T07:23:45.938Z,1.90
2022-11-29T07:26:59.940Z,2.00
2022-11-29T07:30:19.745Z,2.00
2022-11-29T07:33:40.312Z,2.10
2022-11-29T07:36:57.330Z,2.10
2022-11-29T07:40:17.218Z,2.20
2022-11-29T07:43:25.406Z,2.30
2022-11-29T07:46:29.163Z,2.40
2022-11-29T07:49:31.659Z,2.50
2022-11-29T07:52:33.884Z,2.60
2022-11-29T07:55:37.071Z,2.70
2022-11-29T07:58:39.787Z,2.70
2022-11-29T08:01:42.082Z,2.90
2022-11-29T08:04:44.660Z,3.00
2022-11-29T08:07:47.785Z,3.00
2022-11-29T08:10:49.757Z,3.10
2022-11-29T08:13:59.528Z,3.20
2022-11-29T08:17:01.502Z,3.10
2022-11-29T08:20:04.603Z,3.20
2022-11-29T08:23:06.669Z,3.20
2022-11-29T08:26:08.650Z,3.30
2022-11-29T08:29:10.901Z,3.30
2022-11-29T08:32:12.950Z,3.40
2022-11-29T08:35:15.320Z,3.40
2022-11-29T08:38:17.325Z,3.40
2022-11-29T08:41:19.317Z,3.50
2022-11-29T08:44:21.279Z,3.50
2022-11-29T08:47:38.333Z,3.50
2022-11-29T08:50:40.316Z,3.60
2022-11-29T08:53:42.350Z,3.60
2022-11-29T09:00:07.309Z,3.70
2022-11-29T09:03:28.200Z,3.80
2022-11-29T09:06:37.995Z,3.80
2022-11-29T09:09:39.860Z,3.80
2022-11-29T09:12:44.246Z,3.90
2022-11-29T09:15:46.251Z,4.00
2022-11-29T09:18:52.048Z,4.00
2022-11-29T09:21:54.427Z,4.20
2022-11-29T09:24:56.545Z,4.30
2022-11-29T09:28:01.929Z,4.40
2022-11-29T09:31:08.870Z,4.50
2022-11-29T09:34:18.631Z,4.60
2022-11-29T09:37:20.651Z,4.70
2022-11-29T09:40:37.412Z,4.70
2022-11-29T09:44:05.753Z,4.80
2022-11-29T09:47:47.362Z,4.70
2022-11-29T09:50:56.245Z,4.70
2022-11-29T09:54:21.956Z,4.60
2022-11-29T09:57:27.061Z,4.60
2022-11-29T10:00:30.701Z,4.70
2022-11-29T10:03:40.113Z,4.60
2022-11-29T10:06:54.506Z,4.60
2022-11-29T10:10:02.904Z,4.60
2022-11-29T10:13:21.359Z,4.70
2022-11-29T10:16:36.313Z,4.70
2022-11-29T10:19:51.535Z,4.70
2022-11-29T10:23:03.376Z,4.80
2022-11-29T10:26:08.486Z,4.70
2022-11-29T10:29:15.678Z,4.60
2022-11-29T10:32:21.233Z,4.60
2022-11-29T10:35:23.945Z,4.50
2022-11-29T10:38:31.106Z,4.50
2022-11-29T10:41:34.071Z,4.60
2022-11-29T10:44:36.065Z,4.80
2022-11-29T10:47:38.221Z,4.90
2022-11-29T10:50:43.995Z,4.90
2022-11-29T10:53:46.756Z,5.00
2022-11-29T10:56:48.936Z,5.00
2022-11-29T11:00:08.263Z,5.00
2022-11-29T11:03:32.105Z,5.00
2022-11-29T11:06:51.465Z,5.00
2022-11-29T11:09:56.650Z,4.90
2022-11-29T11:13:06.806Z,4.90
2022-11-29T11:16:18.562Z,4.80
2022-11-29T11:19:28.458Z,4.90
2022-11-29T11:22:32.901Z,4.80
2022-11-29T11:25:40.139Z,4.90
2022-11-29T11:28:53.615Z,4.80
2022-11-29T11:31:58.989Z,4.90
2022-11-29T11:35:02.594Z,5.00
2022-11-29T11:38:04.616Z,4.90
2022-11-29T11:41:20.552Z,4.90
2022-11-29T11:44:48.000Z,5.00
2022-11-29T11:47:57.082Z,5.00
2022-11-29T11:51:01.615Z,4.90
2022-11-29T11:54:03.726Z,4.90
2022-11-29T11:57:15.536Z,4.90
2022-11-29T12:01:06.856Z,4.90
2022-11-29T12:04:15.148Z,4.90
2022-11-29T12:08:06.270Z,4.90
2022-11-29T12:11:07.273Z,4.80
2022-11-29T12:14:40.298Z,4.80
2022-11-29T12:18:01.055Z,4.80
2022-11-29T12:21:14.331Z,4.70
2022-11-29T12:24:38.490Z,4.70
2022-11-29T12:27:40.430Z,4.60
2022-11-29T12:31:05.655Z,4.60
2022-11-29T12:34:32.281Z,4.50
2022-11-29T12:37:58.795Z,4.50
2022-11-29T12:41:16.325Z,4.40
2022-11-29T12:44:32.663Z,4.40
2022-11-29T12:47:54.924Z,4.40
2022-11-29T12:51:03.753Z,4.40
2022-11-29T12:54:34.045Z,4.30
2022-11-29T12:58:23.373Z,4.40
2022-11-29T13:01:39.331Z,4.40
2022-11-29T13:05:06.738Z,4.40
2022-11-29T13:08:42.307Z,4.30
2022-11-29T13:11:55.705Z,4.30
2022-11-29T13:15:13.338Z,4.30
2022-11-29T13:18:27.428Z,4.30
2022-11-29T13:21:34.645Z,4.30
2022-11-29T13:24:42.683Z,4.30
2022-11-29T13:27:58.449Z,4.20
2022-11-29T13:31:04.931Z,4.20
2022-11-29T13:34:24.761Z,4.20
2022-11-29T13:37:38.785Z,4.20
2022-11-29T13:41:10.731Z,4.20
2022-11-29T13:44:29.773Z,4.10
2022-11-29T13:47:31.913Z,4.10
2022-11-29T13:50:44.131Z,4.10
2022-11-29T13:53:49.176Z,4.10
2022-11-29T13:57:05.437Z,4.10
2022-11-29T14:00:26.664Z,4.00
2022-11-29T14:03:32.529Z,4.00
2022-11-29T14:06:38.755Z,3.90
2022-11-29T14:09:49.944Z,4.00
2022-11-29T14:12:56.208Z,3.90
2022-11-29T14:16:01.842Z,3.90
2022-11-29T14:19:06.985Z,3.90
2022-11-29T14:22:20.315Z,3.90
2022-11-29T14:28:57.208Z,3.90
2022-11-29T14:32:00.185Z,3.80
2022-11-29T14:35:11.094Z,3.80
2022-11-29T14:38:31.251Z,3.80
2022-11-29T14:41:45.887Z,3.80
2022-11-29T14:44:54.306Z,3.80
2022-11-29T14:47:57.414Z,3.70
2022-11-29T14:51:12.855Z,3.70
2022-11-29T14:54:18.351Z,3.70
2022-11-29T14:57:48.410Z,3.60
2022-11-29T15:00:55.613Z,3.60
2022-11-29T15:03:57.998Z,3.60
2022-11-29T15:07:01.478Z,3.60
2022-11-29T15:10:13.565Z,3.50
2022-11-29T15:13:27.696Z,3.50
2022-11-29T15:16:35.913Z,3.50
2022-11-29T15:20:07.313Z,3.50
2022-11-29T15:23:15.282Z,3.50
2022-11-29T15:26:21.671Z,3.50
2022-11-29T15:29:24.020Z,3.50
2022-11-29T15:32:32.670Z,3.50
2022-11-29T15:35:36.139Z,3.40
2022-11-29T15:38:44.722Z,3.40
2022-11-29T15:41:46.707Z,3.40
2022-11-29T15:44:49.250Z,3.40
2022-11-29T15:47:51.678Z,3.50
2022-11-29T15:51:34.236Z,3.40
2022-11-29T15:54:43.901Z,3.40
2022-11-29T15:57:48.450Z,3.40
2022-11-29T16:00:51.875Z,3.40
2022-11-29T16:03:57.193Z,3.50
2022-11-29T16:06:59.242Z,3.40
2022-11-29T16:10:18.331Z,3.40
2022-11-29T16:13:41.243Z,3.40
2022-11-29T16:16:46.429Z,3.40
2022-11-29T16:19:48.674Z,3.40
2022-11-29T16:23:08.865Z,3.40
2022-11-29T16:26:15.484Z,3.40
2022-11-29T16:29:34.207Z,3.40
2022-11-29T16:32:42.092Z,3.40
2022-11-29T16:35:44.653Z,3.50
2022-11-29T16:38:50.791Z,3.50
2022-11-29T16:42:15.021Z,3.40
2022-11-29T16:45:35.419Z,3.40
2022-11-29T16:48:38.416Z,3.40
2022-11-29T16:51:48.421Z,3.40
2022-11-29T16:54:51.031Z,3.40
2022-11-29T16:57:53.045Z,3.40
2022-11-29T17:00:55.841Z,3.40
2022-11-29T17:04:00.160Z,3.40
2022-11-29T17:07:02.386Z,3.40
2022-11-29T17:10:06.878Z,3.40
2022-11-29T17:13:12.278Z,3.40
2022-11-29T17:16:17.475Z,3.40
2022-11-29T17:19:24.294Z,3.40
2022-11-29T17:22:26.343Z,3.40
2022-11-29T17:25:28.437Z,3.40
2022-11-29T17:28:30.591Z,3.40
2022-11-29T17:31:32.884Z,3.40
2022-11-29T17:34:35.639Z,3.40
2022-11-29T17:37:38.105Z,3.40
2022-11-29T17:40:40.838Z,3.40
2022-11-29T17:43:42.995Z,3.30
2022-11-29T17:46:45.443Z,3.30
2022-11-29T17:49:48.153Z,3.30
2022-11-29T17:52:50.886Z,3.30
2022-11-29T17:55:53.305Z,3.30
2022-11-29T17:59:01.083Z,3.20
2022-11-29T18:02:04.129Z,3.20
2022-11-29T18:05:07.066Z,3.20
2022-11-29T18:08:09.130Z,3.20
2022-11-29T18:11:11.113Z,3.20
2022-11-29T18:14:18.249Z,3.20
2022-11-29T18:17:21.795Z,3.10
2022-11-29T18:20:24.391Z,3.20
2022-11-29T18:23:29.752Z,3.10
2022-11-29T18:26:33.409Z,3.10
2022-11-29T18:29:39.092Z,3.10
2022-11-29T18:32:41.917Z,3.10
2022-11-29T18:35:43.970Z,3.10
2022-11-29T18:38:47.409Z,3.10
2022-11-29T18:41:51.141Z,3.10
2022-11-29T18:44:58.633Z,3.00
2022-11-29T18:48:01.449Z,3.00
2022-11-29T18:51:05.306Z,3.00
2022-11-29T18:54:07.655Z,3.00
2022-11-29T18:57:10.168Z,3.00
2022-11-29T19:00:13.800Z,3.00
2022-11-29T19:03:15.922Z,2.90
2022-11-29T19:06:21.173Z,3.00
2022-11-29T19:09:23.446Z,2.90
2022-11-29T19:12:26.135Z,2.90
2022-11-29T19:15:28.289Z,2.90
2022-11-29T19:18:31.125Z,2.90
2022-11-29T19:21:35.145Z,2.90
2022-11-29T19:24:37.559Z,2.90
2022-11-29T19:27:40.578Z,2.90
2022-11-29T19:30:43.354Z,2.90
2022-11-29T19:33:47.626Z,2.90
2022-11-29T19:36:50.607Z,2.90
2022-11-29T19:39:53.161Z,2.90
2022-11-29T19:42:56.407Z,2.90
2022-11-29T19:45:58.671Z,2.80
2022-11-29T19:49:02.321Z,2.80
2022-11-29T19:52:05.038Z,2.80
2022-11-29T19:55:07.758Z,2.80
2022-11-29T19:58:10.664Z,2.80
2022-11-29T20:01:17.855Z,2.80
2022-11-29T20:04:20.758Z,2.80
2022-11-29T20:07:23.083Z,2.80
2022-11-29T20:10:25.544Z,2.80
2022-11-29T20:13:28.016Z,2.80
2022-11-29T20:16:32.037Z,2.80
2022-11-29T20:19:34.897Z,2.80
2022-11-29T20:22:37.703Z,2.70
2022-11-29T20:25:40.196Z,2.70
2022-11-29T20:28:43.118Z,2.70
2022-11-29T20:31:50.031Z,2.70
2022-11-29T20:34:54.000Z,2.70
2022-11-29T20:38:30.114Z,2.70
2022-11-29T20:41:40.695Z,2.70
2022-11-29T20:45:06.738Z,2.70
2022-11-29T20:48:20.889Z,2.70
2022-11-29T20:51:28.684Z,2.60
2022-11-29T20:54:32.266Z,2.60
2022-11-29T20:57:35.275Z,2.60
2022-11-29T21:00:37.413Z,2.60
2022-11-29T21:03:39.852Z,2.60
2022-11-29T21:06:42.803Z,2.60
2022-11-29T21:09:45.325Z,2.60
2022-11-29T21:12:47.655Z,2.60
2022-11-29T21:15:50.340Z,2.60
2022-11-29T21:18:54.927Z,2.60
2022-11-29T21:22:19.956Z,2.60
2022-11-29T21:25:44.844Z,2.60
2022-11-29T21:29:09.656Z,2.60
2022-11-29T21:32:22.104Z,2.60
2022-11-29T21:35:24.509Z,2.60
2022-11-29T21:38:29.150Z,2.60
2022-11-29T21:41:31.173Z,2.60
2022-11-29T21:44:33.277Z,2.60
2022-11-29T21:47:35.277Z,2.60
2022-11-29T21:50:37.346Z,2.60
2022-11-29T21:53:40.195Z,2.50
2022-11-29T21:56:42.237Z,2.50
2022-11-29T21:59:44.233Z,2.50
2022-11-29T22:02:46.261Z,2.50
2022-11-29T22:05:48.371Z,2.50
2022-11-29T22:08:50.518Z,2.60
2022-11-29T22:11:53.468Z,2.50
2022-11-29T22:14:55.499Z,2.50
2022-11-29T22:17:57.506Z,2.50
2022-11-29T22:21:07.110Z,2.50
2022-11-29T22:24:10.440Z,2.50
2022-11-29T22:27:12.505Z,2.50
2022-11-29T22:30:14.671Z,2.50
2022-11-29T22:33:16.676Z,2.50
2022-11-29T22:36:18.743Z,2.50
2022-11-29T22:39:20.820Z,2.50
2022-11-29T22:42:22.721Z,2.50
2022-11-29T22:45:24.770Z,2.50
2022-11-29T22:48:26.746Z,2.40
2022-11-29T22:51:37.207Z,2.40
2022-11-29T22:54:39.193Z,2.40
2022-11-29T22:57:41.302Z,2.40
2022-11-29T23:00:44.137Z,2.50
2022-11-29T23:03:49.025Z,2.50
2022-11-29T23:06:51.029Z,2.40
2022-11-29T23:09:55.143Z,2.50
2022-11-29T23:12:57.277Z,2.40
2022-11-29T23:15:59.726Z,2.40
2022-11-29T23:19:02.172Z,2.40
2022-11-29T23:22:04.181Z,2.50
2022-11-29T23:25:07.172Z,2.50
2022-11-29T23:28:09.189Z,2.50
2022-11-29T23:31:11.305Z,2.50
2022-11-29T23:34:13.687Z,2.50
2022-11-29T23:37:15.680Z,2.50
2022-11-29T23:40:17.830Z,2.50
2022-11-29T23:43:20.618Z,2.50
2022-11-29T23:46:24.230Z,2.40
2022-11-29T23:49:26.352Z,2.40
2022-11-29T23:52:28.344Z,2.40
2022-11-29T23:55:30.399Z,2.40
2022-11-29T23:58:33.478Z,2.40
